sensor_id;sensor_type;location;lat;lon;timestamp;temperature;humidity
24636;DHT22;12772;49.794;10.024;2022-09-14T00:03:59;21.00;60.40
24636;DHT22;12772;49.794;10.024;2022-09-14T00:08:03;21.00;60.40
24636;DHT22;12772;49.794;10.024;2022-09-14T00:12:05;21.00;60.70
24636;DHT22;12772;49.794;10.024;2022-09-14T00:16:12;21.00;60.90
24636;DHT22;12772;49.794;10.024;2022-09-14T00:20:14;21.00;61.00
24636;DHT22;12772;49.794;10.024;2022-09-14T00:24:16;21.00;61.10
24636;DHT22;12772;49.794;10.024;2022-09-14T00:28:19;21.00;61.10
24636;DHT22;12772;49.794;10.024;2022-09-14T00:32:21;21.00;61.20
24636;DHT22;12772;49.794;10.024;2022-09-14T00:36:26;21.00;61.20
24636;DHT22;12772;49.794;10.024;2022-09-14T00:40:28;21.00;61.10
24636;DHT22;12772;49.794;10.024;2022-09-14T00:48:32;21.00;60.90
24636;DHT22;12772;49.794;10.024;2022-09-14T00:52:37;21.10;60.70
24636;DHT22;12772;49.794;10.024;2022-09-14T00:56:41;21.00;60.60
24636;DHT22;12772;49.794;10.024;2022-09-14T01:00:43;21.10;60.70
24636;DHT22;12772;49.794;10.024;2022-09-14T01:04:45;21.10;60.70
24636;DHT22;12772;49.794;10.024;2022-09-14T01:21:40;21.00;61.30
24636;DHT22;12772;49.794;10.024;2022-09-14T01:30:22;21.00;61.50
24636;DHT22;12772;49.794;10.024;2022-09-14T01:34:37;20.90;61.90
24636;DHT22;12772;49.794;10.024;2022-09-14T01:38:47;20.90;62.00
24636;DHT22;12772;49.794;10.024;2022-09-14T01:42:55;20.90;62.40
24636;DHT22;12772;49.794;10.024;2022-09-14T01:47:07;20.90;62.70
24636;DHT22;12772;49.794;10.024;2022-09-14T01:51:16;20.90;62.80
24636;DHT22;12772;49.794;10.024;2022-09-14T01:55:27;20.80;62.80
24636;DHT22;12772;49.794;10.024;2022-09-14T01:59:38;20.90;62.90
24636;DHT22;12772;49.794;10.024;2022-09-14T02:03:46;20.90;63.20
24636;DHT22;12772;49.794;10.024;2022-09-14T02:07:49;20.90;63.30
24636;DHT22;12772;49.794;10.024;2022-09-14T02:11:53;20.90;63.40
24636;DHT22;12772;49.794;10.024;2022-09-14T02:16:00;20.90;63.50
24636;DHT22;12772;49.794;10.024;2022-09-14T02:20:05;20.80;63.50
24636;DHT22;12772;49.794;10.024;2022-09-14T02:24:08;20.80;63.60
24636;DHT22;12772;49.794;10.024;2022-09-14T02:28:11;20.80;63.60
24636;DHT22;12772;49.794;10.024;2022-09-14T02:32:40;20.70;63.60
24636;DHT22;12772;49.794;10.024;2022-09-14T02:41:20;20.70;63.90
24636;DHT22;12772;49.794;10.024;2022-09-14T02:46:00;20.70;64.00
24636;DHT22;12772;49.794;10.024;2022-09-14T02:50:21;20.60;64.00
24636;DHT22;12772;49.794;10.024;2022-09-14T02:54:39;20.60;64.10
24636;DHT22;12772;49.794;10.024;2022-09-14T02:58:44;20.60;64.30
24636;DHT22;12772;49.794;10.024;2022-09-14T03:02:46;20.60;64.50
24636;DHT22;12772;49.794;10.024;2022-09-14T03:06:48;20.60;64.50
24636;DHT22;12772;49.794;10.024;2022-09-14T03:10:50;20.60;64.60
24636;DHT22;12772;49.794;10.024;2022-09-14T03:14:52;20.60;64.70
24636;DHT22;12772;49.794;10.024;2022-09-14T03:18:54;20.50;64.70
24636;DHT22;12772;49.794;10.024;2022-09-14T03:22:57;20.50;65.20
24636;DHT22;12772;49.794;10.024;2022-09-14T03:27:02;20.40;65.50
24636;DHT22;12772;49.794;10.024;2022-09-14T03:31:06;20.40;65.60
24636;DHT22;12772;49.794;10.024;2022-09-14T03:35:08;20.40;66.00
24636;DHT22;12772;49.794;10.024;2022-09-14T03:39:10;20.30;65.90
24636;DHT22;12772;49.794;10.024;2022-09-14T03:43:13;20.30;66.00
24636;DHT22;12772;49.794;10.024;2022-09-14T03:47:15;20.30;65.90
24636;DHT22;12772;49.794;10.024;2022-09-14T03:51:17;20.30;66.00
24636;DHT22;12772;49.794;10.024;2022-09-14T03:55:19;20.30;66.00
24636;DHT22;12772;49.794;10.024;2022-09-14T03:59:21;20.20;65.80
24636;DHT22;12772;49.794;10.024;2022-09-14T04:03:23;20.30;65.90
24636;DHT22;12772;49.794;10.024;2022-09-14T04:07:25;20.20;65.50
24636;DHT22;12772;49.794;10.024;2022-09-14T04:11:27;20.20;65.80
24636;DHT22;12772;49.794;10.024;2022-09-14T04:15:31;20.20;65.80
24636;DHT22;12772;49.794;10.024;2022-09-14T04:19:33;20.20;65.80
24636;DHT22;12772;49.794;10.024;2022-09-14T04:23:37;20.20;65.80
24636;DHT22;12772;49.794;10.024;2022-09-14T04:27:39;20.30;66.00
24636;DHT22;12772;49.794;10.024;2022-09-14T04:31:41;20.30;65.80
24636;DHT22;12772;49.794;10.024;2022-09-14T04:35:43;20.30;65.50
24636;DHT22;12772;49.794;10.024;2022-09-14T04:39:45;20.20;65.50
24636;DHT22;12772;49.794;10.024;2022-09-14T04:43:48;20.20;65.80
24636;DHT22;12772;49.794;10.024;2022-09-14T04:47:52;20.10;65.80
24636;DHT22;12772;49.794;10.024;2022-09-14T04:51:54;20.10;65.80
24636;DHT22;12772;49.794;10.024;2022-09-14T04:56:03;20.10;65.80
24636;DHT22;12772;49.794;10.024;2022-09-14T05:00:06;20.10;65.80
24636;DHT22;12772;49.794;10.024;2022-09-14T05:04:10;20.10;65.80
24636;DHT22;12772;49.794;10.024;2022-09-14T05:08:12;20.10;65.80
24636;DHT22;12772;49.794;10.024;2022-09-14T05:12:14;20.20;65.80
24636;DHT22;12772;49.794;10.024;2022-09-14T05:16:19;20.10;65.80
24636;DHT22;12772;49.794;10.024;2022-09-14T05:20:21;20.20;65.80
24636;DHT22;12772;49.794;10.024;2022-09-14T05:24:23;20.20;65.80
24636;DHT22;12772;49.794;10.024;2022-09-14T05:28:26;20.20;65.80
24636;DHT22;12772;49.794;10.024;2022-09-14T05:32:28;20.20;65.80
24636;DHT22;12772;49.794;10.024;2022-09-14T05:36:30;20.20;65.60
24636;DHT22;12772;49.794;10.024;2022-09-14T05:40:32;20.20;65.80
24636;DHT22;12772;49.794;10.024;2022-09-14T05:44:34;20.20;65.50
24636;DHT22;12772;49.794;10.024;2022-09-14T05:48:37;20.20;65.90
24636;DHT22;12772;49.794;10.024;2022-09-14T05:52:40;20.20;65.80
24636;DHT22;12772;49.794;10.024;2022-09-14T05:56:42;20.10;65.80
24636;DHT22;12772;49.794;10.024;2022-09-14T06:00:44;20.10;65.80
24636;DHT22;12772;49.794;10.024;2022-09-14T06:04:45;20.10;65.80
24636;DHT22;12772;49.794;10.024;2022-09-14T06:08:49;20.10;66.30
24636;DHT22;12772;49.794;10.024;2022-09-14T06:12:52;20.20;65.90
24636;DHT22;12772;49.794;10.024;2022-09-14T06:16:54;20.10;65.80
24636;DHT22;12772;49.794;10.024;2022-09-14T06:20:56;20.10;65.80
24636;DHT22;12772;49.794;10.024;2022-09-14T06:24:58;20.10;65.80
24636;DHT22;12772;49.794;10.024;2022-09-14T06:29:00;20.20;65.80
24636;DHT22;12772;49.794;10.024;2022-09-14T06:33:04;20.20;65.80
24636;DHT22;12772;49.794;10.024;2022-09-14T06:37:06;20.20;65.80
24636;DHT22;12772;49.794;10.024;2022-09-14T06:41:10;20.20;65.80
24636;DHT22;12772;49.794;10.024;2022-09-14T06:45:13;20.20;65.90
24636;DHT22;12772;49.794;10.024;2022-09-14T06:49:15;20.20;65.80
24636;DHT22;12772;49.794;10.024;2022-09-14T06:53:20;20.20;65.80
24636;DHT22;12772;49.794;10.024;2022-09-14T06:57:22;20.10;65.80
24636;DHT22;12772;49.794;10.024;2022-09-14T07:01:25;20.10;66.10
24636;DHT22;12772;49.794;10.024;2022-09-14T07:05:27;20.10;66.40
24636;DHT22;12772;49.794;10.024;2022-09-14T07:09:30;20.10;66.50
24636;DHT22;12772;49.794;10.024;2022-09-14T07:13:33;20.10;66.60
24636;DHT22;12772;49.794;10.024;2022-09-14T07:17:35;20.20;66.60
24636;DHT22;12772;49.794;10.024;2022-09-14T07:21:37;20.20;66.60
24636;DHT22;12772;49.794;10.024;2022-09-14T07:25:39;20.20;66.60
24636;DHT22;12772;49.794;10.024;2022-09-14T07:29:42;20.20;66.70
24636;DHT22;12772;49.794;10.024;2022-09-14T07:33:44;20.30;66.70
24636;DHT22;12772;49.794;10.024;2022-09-14T07:37:46;20.30;66.80
24636;DHT22;12772;49.794;10.024;2022-09-14T07:41:48;20.30;66.70
24636;DHT22;12772;49.794;10.024;2022-09-14T07:45:50;20.40;66.60
24636;DHT22;12772;49.794;10.024;2022-09-14T07:49:52;20.40;66.30
24636;DHT22;12772;49.794;10.024;2022-09-14T07:53:54;20.40;66.30
24636;DHT22;12772;49.794;10.024;2022-09-14T07:57:57;20.40;66.20
24636;DHT22;12772;49.794;10.024;2022-09-14T08:01:59;20.40;66.00
24636;DHT22;12772;49.794;10.024;2022-09-14T08:06:09;20.50;66.10
24636;DHT22;12772;49.794;10.024;2022-09-14T08:10:12;20.50;66.10
24636;DHT22;12772;49.794;10.024;2022-09-14T08:14:14;20.60;66.20
24636;DHT22;12772;49.794;10.024;2022-09-14T08:18:16;20.60;66.20
24636;DHT22;12772;49.794;10.024;2022-09-14T08:22:18;20.60;66.20
24636;DHT22;12772;49.794;10.024;2022-09-14T08:26:22;20.60;66.20
24636;DHT22;12772;49.794;10.024;2022-09-14T08:30:24;20.70;66.20
24636;DHT22;12772;49.794;10.024;2022-09-14T08:34:26;20.70;66.30
24636;DHT22;12772;49.794;10.024;2022-09-14T08:38:28;20.70;66.20
24636;DHT22;12772;49.794;10.024;2022-09-14T08:42:31;20.70;66.20
24636;DHT22;12772;49.794;10.024;2022-09-14T08:46:42;20.80;66.30
24636;DHT22;12772;49.794;10.024;2022-09-14T08:50:44;20.70;66.20
24636;DHT22;12772;49.794;10.024;2022-09-14T08:54:48;20.70;66.30
24636;DHT22;12772;49.794;10.024;2022-09-14T08:59:08;20.70;66.20
24636;DHT22;12772;49.794;10.024;2022-09-14T09:11:44;20.80;66.30
24636;DHT22;12772;49.794;10.024;2022-09-14T09:15:52;20.80;66.30
24636;DHT22;12772;49.794;10.024;2022-09-14T09:20:09;20.80;66.30
24636;DHT22;12772;49.794;10.024;2022-09-14T09:24:15;20.80;66.30
24636;DHT22;12772;49.794;10.024;2022-09-14T09:28:19;20.80;66.30
24636;DHT22;12772;49.794;10.024;2022-09-14T09:32:24;20.80;66.30
24636;DHT22;12772;49.794;10.024;2022-09-14T09:36:33;20.90;66.40
24636;DHT22;12772;49.794;10.024;2022-09-14T09:40:36;20.90;66.40
24636;DHT22;12772;49.794;10.024;2022-09-14T09:45:00;20.90;66.40
24636;DHT22;12772;49.794;10.024;2022-09-14T09:49:13;21.00;66.50
24636;DHT22;12772;49.794;10.024;2022-09-14T09:53:19;21.00;66.50
24636;DHT22;12772;49.794;10.024;2022-09-14T09:57:33;21.00;66.50
24636;DHT22;12772;49.794;10.024;2022-09-14T10:01:35;21.10;66.60
24636;DHT22;12772;49.794;10.024;2022-09-14T10:05:37;21.10;66.60
24636;DHT22;12772;49.794;10.024;2022-09-14T10:09:39;21.20;66.70
24636;DHT22;12772;49.794;10.024;2022-09-14T10:13:46;21.20;66.60
24636;DHT22;12772;49.794;10.024;2022-09-14T10:22:18;21.20;65.80
24636;DHT22;12772;49.794;10.024;2022-09-14T10:26:23;21.20;66.20
24636;DHT22;12772;49.794;10.024;2022-09-14T10:30:45;21.20;66.10
24636;DHT22;12772;49.794;10.024;2022-09-14T10:34:50;21.30;65.90
24636;DHT22;12772;49.794;10.024;2022-09-14T10:43:34;21.40;65.70
24636;DHT22;12772;49.794;10.024;2022-09-14T11:01:12;21.80;65.10
24636;DHT22;12772;49.794;10.024;2022-09-14T11:05:45;21.90;64.90
24636;DHT22;12772;49.794;10.024;2022-09-14T11:27:38;22.50;63.40
24636;DHT22;12772;49.794;10.024;2022-09-14T11:32:12;22.50;62.90
24636;DHT22;12772;49.794;10.024;2022-09-14T11:40:29;22.60;62.90
24636;DHT22;12772;49.794;10.024;2022-09-14T11:44:36;22.60;62.80
24636;DHT22;12772;49.794;10.024;2022-09-14T11:48:53;22.70;63.00
24636;DHT22;12772;49.794;10.024;2022-09-14T11:53:14;22.80;62.80
24636;DHT22;12772;49.794;10.024;2022-09-14T11:57:25;22.90;62.60
24636;DHT22;12772;49.794;10.024;2022-09-14T12:01:30;23.00;62.30
24636;DHT22;12772;49.794;10.024;2022-09-14T12:05:34;23.10;61.80
24636;DHT22;12772;49.794;10.024;2022-09-14T12:09:38;23.30;61.90
24636;DHT22;12772;49.794;10.024;2022-09-14T12:13:40;23.30;61.20
24636;DHT22;12772;49.794;10.024;2022-09-14T12:17:43;23.30;61.30
24636;DHT22;12772;49.794;10.024;2022-09-14T12:21:46;23.40;61.10
24636;DHT22;12772;49.794;10.024;2022-09-14T12:34:34;23.70;61.40
24636;DHT22;12772;49.794;10.024;2022-09-14T12:42:38;24.20;61.00
24636;DHT22;12772;49.794;10.024;2022-09-14T12:46:40;24.40;59.90
24636;DHT22;12772;49.794;10.024;2022-09-14T12:50:49;24.40;60.00
24636;DHT22;12772;49.794;10.024;2022-09-14T12:55:17;24.40;59.60
24636;DHT22;12772;49.794;10.024;2022-09-14T13:03:53;24.30;59.80
24636;DHT22;12772;49.794;10.024;2022-09-14T13:07:56;24.30;59.80
24636;DHT22;12772;49.794;10.024;2022-09-14T13:12:06;24.20;59.70
24636;DHT22;12772;49.794;10.024;2022-09-14T13:16:16;24.20;59.70
24636;DHT22;12772;49.794;10.024;2022-09-14T13:20:20;24.10;59.60
24636;DHT22;12772;49.794;10.024;2022-09-14T13:24:35;24.10;59.70
24636;DHT22;12772;49.794;10.024;2022-09-14T13:28:42;24.10;60.20
24636;DHT22;12772;49.794;10.024;2022-09-14T13:32:49;24.00;60.40
24636;DHT22;12772;49.794;10.024;2022-09-14T13:36:51;24.00;60.60
24636;DHT22;12772;49.794;10.024;2022-09-14T13:41:02;23.90;60.50
24636;DHT22;12772;49.794;10.024;2022-09-14T13:45:06;23.90;60.70
24636;DHT22;12772;49.794;10.024;2022-09-14T13:49:08;24.00;60.80
24636;DHT22;12772;49.794;10.024;2022-09-14T13:58:03;24.00;61.20
24636;DHT22;12772;49.794;10.024;2022-09-14T14:02:12;24.00;61.30
24636;DHT22;12772;49.794;10.024;2022-09-14T14:06:31;23.90;61.50
24636;DHT22;12772;49.794;10.024;2022-09-14T14:10:39;23.90;61.70
24636;DHT22;12772;49.794;10.024;2022-09-14T14:18:59;23.80;61.60
24636;DHT22;12772;49.794;10.024;2022-09-14T14:23:17;23.80;61.70
24636;DHT22;12772;49.794;10.024;2022-09-14T14:31:28;23.80;62.00
24636;DHT22;12772;49.794;10.024;2022-09-14T14:35:30;23.70;62.90
24636;DHT22;12772;49.794;10.024;2022-09-14T14:39:32;23.60;63.40
24636;DHT22;12772;49.794;10.024;2022-09-14T14:43:35;23.50;64.10
24636;DHT22;12772;49.794;10.024;2022-09-14T14:47:37;23.40;64.70
24636;DHT22;12772;49.794;10.024;2022-09-14T14:51:39;23.20;64.70
24636;DHT22;12772;49.794;10.024;2022-09-14T14:55:41;23.20;65.10
24636;DHT22;12772;49.794;10.024;2022-09-14T14:59:44;23.00;65.10
24636;DHT22;12772;49.794;10.024;2022-09-14T15:03:46;22.90;64.80
24636;DHT22;12772;49.794;10.024;2022-09-14T15:07:49;22.80;64.80
24636;DHT22;12772;49.794;10.024;2022-09-14T15:11:55;22.80;65.00
24636;DHT22;12772;49.794;10.024;2022-09-14T15:15:57;22.70;65.30
24636;DHT22;12772;49.794;10.024;2022-09-14T15:20:00;22.70;65.70
24636;DHT22;12772;49.794;10.024;2022-09-14T15:24:04;22.70;65.90
24636;DHT22;12772;49.794;10.024;2022-09-14T15:28:06;22.70;66.10
24636;DHT22;12772;49.794;10.024;2022-09-14T15:32:09;22.50;65.80
24636;DHT22;12772;49.794;10.024;2022-09-14T15:36:12;22.40;66.40
24636;DHT22;12772;49.794;10.024;2022-09-14T15:40:15;22.30;66.10
24636;DHT22;12772;49.794;10.024;2022-09-14T15:44:18;22.20;65.90
24636;DHT22;12772;49.794;10.024;2022-09-14T15:48:23;22.10;65.70
24636;DHT22;12772;49.794;10.024;2022-09-14T15:52:26;22.10;65.60
24636;DHT22;12772;49.794;10.024;2022-09-14T15:56:28;21.90;65.60
24636;DHT22;12772;49.794;10.024;2022-09-14T16:00:31;21.90;65.80
24636;DHT22;12772;49.794;10.024;2022-09-14T16:04:36;21.80;65.90
24636;DHT22;12772;49.794;10.024;2022-09-14T16:08:39;21.80;66.10
24636;DHT22;12772;49.794;10.024;2022-09-14T16:12:42;21.80;66.70
24636;DHT22;12772;49.794;10.024;2022-09-14T16:16:44;21.70;67.10
24636;DHT22;12772;49.794;10.024;2022-09-14T16:20:46;21.70;67.00
24636;DHT22;12772;49.794;10.024;2022-09-14T16:24:48;21.70;67.00
24636;DHT22;12772;49.794;10.024;2022-09-14T16:28:51;21.70;67.00
24636;DHT22;12772;49.794;10.024;2022-09-14T16:32:53;21.70;67.00
24636;DHT22;12772;49.794;10.024;2022-09-14T16:36:55;21.70;67.00
24636;DHT22;12772;49.794;10.024;2022-09-14T16:40:59;21.70;67.00
24636;DHT22;12772;49.794;10.024;2022-09-14T16:45:01;21.70;67.00
24636;DHT22;12772;49.794;10.024;2022-09-14T16:49:04;21.80;67.10
24636;DHT22;12772;49.794;10.024;2022-09-14T16:53:06;21.80;67.10
24636;DHT22;12772;49.794;10.024;2022-09-14T16:57:08;21.70;67.00
24636;DHT22;12772;49.794;10.024;2022-09-14T17:01:13;21.80;67.10
24636;DHT22;12772;49.794;10.024;2022-09-14T17:05:16;21.80;67.10
24636;DHT22;12772;49.794;10.024;2022-09-14T17:09:21;21.80;67.10
24636;DHT22;12772;49.794;10.024;2022-09-14T17:13:23;21.80;67.10
24636;DHT22;12772;49.794;10.024;2022-09-14T17:17:26;21.80;67.10
24636;DHT22;12772;49.794;10.024;2022-09-14T17:21:31;21.80;67.10
24636;DHT22;12772;49.794;10.024;2022-09-14T17:25:33;21.70;67.00
24636;DHT22;12772;49.794;10.024;2022-09-14T17:29:38;21.70;67.00
24636;DHT22;12772;49.794;10.024;2022-09-14T17:33:43;21.70;66.90
24636;DHT22;12772;49.794;10.024;2022-09-14T17:37:47;21.70;66.70
24636;DHT22;12772;49.794;10.024;2022-09-14T17:41:49;21.60;66.70
24636;DHT22;12772;49.794;10.024;2022-09-14T17:45:53;21.60;66.50
24636;DHT22;12772;49.794;10.024;2022-09-14T17:49:56;21.60;66.50
24636;DHT22;12772;49.794;10.024;2022-09-14T17:53:59;21.60;66.20
24636;DHT22;12772;49.794;10.024;2022-09-14T17:58:02;21.60;66.00
24636;DHT22;12772;49.794;10.024;2022-09-14T18:02:04;21.60;66.40
24636;DHT22;12772;49.794;10.024;2022-09-14T18:06:08;21.50;65.90
24636;DHT22;12772;49.794;10.024;2022-09-14T18:10:11;21.60;65.90
24636;DHT22;12772;49.794;10.024;2022-09-14T18:14:17;21.50;65.90
24636;DHT22;12772;49.794;10.024;2022-09-14T18:18:19;21.50;66.00
24636;DHT22;12772;49.794;10.024;2022-09-14T18:22:21;21.50;66.00
24636;DHT22;12772;49.794;10.024;2022-09-14T18:26:24;21.50;65.60
24636;DHT22;12772;49.794;10.024;2022-09-14T18:30:26;21.50;65.60
24636;DHT22;12772;49.794;10.024;2022-09-14T18:34:28;21.50;65.60
24636;DHT22;12772;49.794;10.024;2022-09-14T18:38:30;21.50;65.60
24636;DHT22;12772;49.794;10.024;2022-09-14T18:42:32;21.60;65.50
24636;DHT22;12772;49.794;10.024;2022-09-14T18:46:36;21.50;65.10
24636;DHT22;12772;49.794;10.024;2022-09-14T18:50:39;21.50;65.00
24636;DHT22;12772;49.794;10.024;2022-09-14T18:54:42;21.50;65.30
24636;DHT22;12772;49.794;10.024;2022-09-14T18:58:45;21.40;65.30
24636;DHT22;12772;49.794;10.024;2022-09-14T19:02:54;21.40;65.30
24636;DHT22;12772;49.794;10.024;2022-09-14T19:06:56;21.50;65.40
24636;DHT22;12772;49.794;10.024;2022-09-14T19:11:13;21.50;65.20
24636;DHT22;12772;49.794;10.024;2022-09-14T19:15:15;21.50;65.00
24636;DHT22;12772;49.794;10.024;2022-09-14T19:19:17;21.40;65.10
24636;DHT22;12772;49.794;10.024;2022-09-14T19:23:19;21.50;65.30
24636;DHT22;12772;49.794;10.024;2022-09-14T19:27:21;21.50;65.20
24636;DHT22;12772;49.794;10.024;2022-09-14T19:31:23;21.50;65.20
24636;DHT22;12772;49.794;10.024;2022-09-14T19:35:26;21.50;65.30
24636;DHT22;12772;49.794;10.024;2022-09-14T19:39:28;21.40;65.40
24636;DHT22;12772;49.794;10.024;2022-09-14T19:43:32;21.30;65.60
24636;DHT22;12772;49.794;10.024;2022-09-14T19:47:34;21.30;65.60
24636;DHT22;12772;49.794;10.024;2022-09-14T19:51:36;21.30;65.70
24636;DHT22;12772;49.794;10.024;2022-09-14T19:55:38;21.30;65.80
24636;DHT22;12772;49.794;10.024;2022-09-14T19:59:40;21.20;65.90
24636;DHT22;12772;49.794;10.024;2022-09-14T20:03:43;21.20;65.80
24636;DHT22;12772;49.794;10.024;2022-09-14T20:07:46;21.20;65.80
24636;DHT22;12772;49.794;10.024;2022-09-14T20:11:49;21.20;65.90
24636;DHT22;12772;49.794;10.024;2022-09-14T20:15:52;21.20;65.90
24636;DHT22;12772;49.794;10.024;2022-09-14T20:19:54;21.20;66.00
24636;DHT22;12772;49.794;10.024;2022-09-14T20:23:58;21.20;66.00
24636;DHT22;12772;49.794;10.024;2022-09-14T20:28:00;21.20;66.20
24636;DHT22;12772;49.794;10.024;2022-09-14T20:32:03;21.10;66.60
24636;DHT22;12772;49.794;10.024;2022-09-14T20:36:16;21.10;66.60
24636;DHT22;12772;49.794;10.024;2022-09-14T20:40:19;21.00;66.50
24636;DHT22;12772;49.794;10.024;2022-09-14T20:44:21;21.10;66.60
24636;DHT22;12772;49.794;10.024;2022-09-14T20:48:25;21.10;66.60
24636;DHT22;12772;49.794;10.024;2022-09-14T20:52:27;21.10;66.60
24636;DHT22;12772;49.794;10.024;2022-09-14T20:56:31;21.10;66.60
24636;DHT22;12772;49.794;10.024;2022-09-14T21:00:33;21.10;66.60
24636;DHT22;12772;49.794;10.024;2022-09-14T21:04:35;21.20;66.60
24636;DHT22;12772;49.794;10.024;2022-09-14T21:08:38;21.10;66.40
24636;DHT22;12772;49.794;10.024;2022-09-14T21:12:40;21.10;67.00
24636;DHT22;12772;49.794;10.024;2022-09-14T21:16:44;21.10;66.60
24636;DHT22;12772;49.794;10.024;2022-09-14T21:20:47;21.10;66.50
24636;DHT22;12772;49.794;10.024;2022-09-14T21:24:49;21.10;66.20
24636;DHT22;12772;49.794;10.024;2022-09-14T21:28:55;21.10;65.90
24636;DHT22;12772;49.794;10.024;2022-09-14T21:32:58;21.00;65.60
24636;DHT22;12772;49.794;10.024;2022-09-14T21:37:00;21.00;65.70
24636;DHT22;12772;49.794;10.024;2022-09-14T21:41:05;21.00;65.80
24636;DHT22;12772;49.794;10.024;2022-09-14T21:45:08;20.90;65.80
24636;DHT22;12772;49.794;10.024;2022-09-14T21:49:15;20.90;66.20
24636;DHT22;12772;49.794;10.024;2022-09-14T21:53:21;20.80;66.30
24636;DHT22;12772;49.794;10.024;2022-09-14T21:57:23;20.80;66.30
24636;DHT22;12772;49.794;10.024;2022-09-14T22:01:25;20.80;66.30
24636;DHT22;12772;49.794;10.024;2022-09-14T22:05:28;20.80;66.30
24636;DHT22;12772;49.794;10.024;2022-09-14T22:09:30;20.80;66.80
24636;DHT22;12772;49.794;10.024;2022-09-14T22:13:32;20.90;66.10
24636;DHT22;12772;49.794;10.024;2022-09-14T22:17:35;20.90;65.80
24636;DHT22;12772;49.794;10.024;2022-09-14T22:21:38;20.90;65.90
24636;DHT22;12772;49.794;10.024;2022-09-14T22:25:41;20.90;65.60
24636;DHT22;12772;49.794;10.024;2022-09-14T22:29:44;20.90;65.60
24636;DHT22;12772;49.794;10.024;2022-09-14T22:33:47;20.80;65.70
24636;DHT22;12772;49.794;10.024;2022-09-14T22:37:49;20.80;65.60
24636;DHT22;12772;49.794;10.024;2022-09-14T22:41:52;20.80;65.70
24636;DHT22;12772;49.794;10.024;2022-09-14T22:45:55;20.80;65.90
24636;DHT22;12772;49.794;10.024;2022-09-14T22:49:57;20.80;65.80
24636;DHT22;12772;49.794;10.024;2022-09-14T22:53:59;20.80;65.50
24636;DHT22;12772;49.794;10.024;2022-09-14T22:58:01;20.80;65.50
24636;DHT22;12772;49.794;10.024;2022-09-14T23:02:03;20.80;65.50
24636;DHT22;12772;49.794;10.024;2022-09-14T23:06:06;20.80;65.30
24636;DHT22;12772;49.794;10.024;2022-09-14T23:10:08;20.80;65.10
24636;DHT22;12772;49.794;10.024;2022-09-14T23:14:14;20.70;65.00
24636;DHT22;12772;49.794;10.024;2022-09-14T23:18:16;20.70;65.10
24636;DHT22;12772;49.794;10.024;2022-09-14T23:22:18;20.70;65.30
24636;DHT22;12772;49.794;10.024;2022-09-14T23:26:22;20.70;65.50
24636;DHT22;12772;49.794;10.024;2022-09-14T23:30:24;20.70;65.80
24636;DHT22;12772;49.794;10.024;2022-09-14T23:34:26;20.70;65.70
24636;DHT22;12772;49.794;10.024;2022-09-14T23:38:28;20.70;65.40
24636;DHT22;12772;49.794;10.024;2022-09-14T23:42:30;20.60;65.40
24636;DHT22;12772;49.794;10.024;2022-09-14T23:46:32;20.60;65.30
24636;DHT22;12772;49.794;10.024;2022-09-14T23:50:34;20.50;65.20
24636;DHT22;12772;49.794;10.024;2022-09-14T23:54:36;20.50;65.20
24636;DHT22;12772;49.794;10.024;2022-09-14T23:58:39;20.50;65.10
